createdAt,value
2023-04-05T00:03:13.967Z,-1.09
2023-04-05T00:07:15.409Z,-1.17
2023-04-05T00:11:16.856Z,-1.04
2023-04-05T00:15:18.218Z,-1.01
2023-04-05T00:19:20.978Z,-1.08
2023-04-05T00:23:22.333Z,-0.96
2023-04-05T00:27:23.770Z,-0.95
2023-04-05T00:31:25.152Z,-1.02
2023-04-05T00:35:28.496Z,-0.94
2023-04-05T00:39:29.887Z,-0.90
2023-04-05T00:43:31.247Z,-0.88
2023-04-05T00:47:32.661Z,-0.89
2023-04-05T00:51:35.414Z,-0.93
2023-04-05T00:55:36.792Z,-1.07
2023-04-05T00:59:38.153Z,-1.12
2023-04-05T01:03:41.655Z,-1.17
2023-04-05T01:07:50.484Z,-1.13
2023-04-05T01:11:52.788Z,-1.42
2023-04-05T01:15:54.177Z,-1.46
2023-04-05T01:19:57.114Z,-1.55
2023-04-05T01:24:06.297Z,-1.54
2023-04-05T01:28:22.895Z,-1.44
2023-04-05T01:32:30.124Z,-1.81
2023-04-05T01:36:36.830Z,-1.66
2023-04-05T01:40:38.455Z,-1.87
2023-04-05T01:44:40.084Z,-1.88
2023-04-05T01:48:42.818Z,-1.89
2023-04-05T01:52:44.145Z,-2.12
2023-04-05T01:56:45.493Z,-2.11
2023-04-05T02:00:46.842Z,-2.23
2023-04-05T02:04:49.683Z,-2.27
2023-04-05T02:08:51.021Z,-2.23
2023-04-05T02:12:52.378Z,-2.39
2023-04-05T02:16:53.708Z,-2.34
2023-04-05T02:21:00.802Z,-2.47
2023-04-05T02:25:02.362Z,-2.55
2023-04-05T02:29:03.728Z,-2.51
2023-04-05T02:33:05.142Z,-2.63
2023-04-05T02:37:07.900Z,-2.77
2023-04-05T02:41:09.806Z,-2.68
2023-04-05T02:45:11.412Z,-2.80
2023-04-05T02:49:12.804Z,-2.82
2023-04-05T02:53:15.533Z,-2.92
2023-04-05T02:57:16.893Z,-2.92
2023-04-05T03:01:18.245Z,-2.99
2023-04-05T03:05:19.637Z,-3.08
2023-04-05T03:09:22.423Z,-3.06
2023-04-05T03:13:23.784Z,-3.05
2023-04-05T03:17:25.136Z,-3.09
2023-04-05T03:21:26.558Z,-3.12
2023-04-05T03:25:29.356Z,-3.17
2023-04-05T03:29:31.041Z,-3.15
2023-04-05T03:33:32.401Z,-3.25
2023-04-05T03:37:33.781Z,-3.31
2023-04-05T03:41:36.500Z,-3.26
2023-04-05T03:45:37.951Z,-3.45
2023-04-05T03:49:39.337Z,-3.35
2023-04-05T03:53:40.692Z,-3.50
2023-04-05T03:57:43.686Z,-3.54
2023-04-05T04:01:45.116Z,-3.55
2023-04-05T04:05:46.748Z,-3.58
2023-04-05T04:09:48.264Z,-3.58
2023-04-05T04:13:51.208Z,-3.55
2023-04-05T04:17:52.673Z,-3.61
2023-04-05T04:21:54.053Z,-3.64
2023-04-05T04:25:55.403Z,-3.71
2023-04-05T04:29:58.165Z,-3.77
2023-04-05T04:33:59.508Z,-3.74
2023-04-05T04:38:01.934Z,-3.76
2023-04-05T04:42:03.420Z,-3.87
2023-04-05T04:46:06.631Z,-3.82
2023-04-05T04:50:08.447Z,-3.79
2023-04-05T04:54:09.812Z,-3.72
2023-04-05T04:58:11.748Z,-3.70
2023-04-05T05:02:14.502Z,-3.64
2023-04-05T05:06:16.780Z,-3.66
2023-04-05T05:10:18.145Z,-3.68
2023-04-05T05:14:19.502Z,-3.74
2023-04-05T05:18:22.210Z,-3.77
2023-04-05T05:22:23.580Z,-3.65
2023-04-05T05:26:24.924Z,-3.58
2023-04-05T05:30:26.272Z,-3.41
2023-04-05T05:34:28.981Z,-3.33
2023-04-05T05:38:30.376Z,-3.17
2023-04-05T05:42:31.918Z,-3.10
2023-04-05T05:46:33.364Z,-2.88
2023-04-05T05:50:36.137Z,-2.66
2023-04-05T05:54:37.499Z,-2.59
2023-04-05T05:58:39.156Z,-2.46
2023-04-05T06:02:40.678Z,-2.17
2023-04-05T06:06:43.671Z,-1.93
2023-04-05T06:10:45.071Z,-1.55
2023-04-05T06:14:46.423Z,-1.19
2023-04-05T06:18:47.893Z,-0.88
2023-04-05T06:22:50.598Z,-0.69
2023-04-05T06:26:51.928Z,-0.34
2023-04-05T06:30:53.745Z,-0.04
2023-04-05T06:34:55.112Z,0.31
2023-04-05T06:38:57.827Z,0.61
2023-04-05T06:42:59.165Z,1.09
2023-04-05T06:47:00.549Z,1.54
2023-04-05T06:51:02.599Z,1.84
2023-04-05T06:55:05.865Z,2.03
2023-04-05T06:59:07.318Z,2.31
2023-04-05T07:03:08.682Z,2.50
2023-04-05T07:07:10.139Z,3.09
2023-04-05T07:11:13.575Z,3.34
2023-04-05T07:15:15.081Z,3.66
2023-04-05T07:19:16.457Z,3.87
2023-04-05T07:23:17.801Z,4.08
2023-04-05T07:27:20.556Z,4.45
2023-04-05T07:31:21.932Z,4.83
2023-04-05T07:35:23.317Z,5.14
2023-04-05T07:39:24.751Z,5.28
2023-04-05T07:43:27.433Z,5.45
2023-04-05T07:47:28.848Z,5.37
2023-04-05T07:51:30.210Z,5.25
2023-04-05T07:55:31.644Z,5.21
2023-04-05T07:59:34.393Z,5.20
2023-04-05T08:03:36.457Z,5.26
2023-04-05T08:07:37.866Z,5.37
2023-04-05T08:11:39.230Z,5.74
2023-04-05T08:15:41.961Z,6.17
2023-04-05T08:19:43.361Z,6.42
2023-04-05T08:23:44.692Z,5.91
2023-04-05T08:27:46.043Z,5.91
2023-04-05T08:31:48.828Z,6.32
2023-04-05T08:35:50.246Z,6.63
2023-04-05T08:39:51.690Z,6.74
2023-04-05T08:43:56.527Z,6.25
2023-04-05T08:47:59.292Z,6.48
2023-04-05T08:52:00.796Z,6.62
2023-04-05T08:56:02.953Z,6.86
2023-04-05T09:00:05.213Z,7.17
2023-04-05T09:04:11.029Z,6.81
2023-04-05T09:08:13.013Z,7.01
2023-04-05T09:12:14.479Z,6.51
2023-04-05T09:16:16.329Z,6.31
2023-04-05T09:20:19.268Z,6.51
2023-04-05T09:24:29.598Z,6.46
2023-04-05T09:28:40.468Z,7.03
2023-04-05T09:32:46.481Z,7.29
2023-04-05T09:36:49.298Z,7.45
2023-04-05T09:40:50.645Z,7.44
2023-04-05T09:44:52.762Z,7.17
2023-04-05T09:48:54.182Z,7.28
2023-04-05T09:53:07.002Z,7.41
2023-04-05T09:57:10.188Z,6.94
2023-04-05T10:01:16.699Z,6.90
2023-04-05T10:05:18.731Z,6.55
2023-04-05T10:09:21.847Z,6.39
2023-04-05T10:13:23.371Z,6.45
2023-04-05T10:17:27.352Z,6.01
2023-04-05T10:21:29.553Z,6.44
2023-04-05T10:25:41.572Z,6.51
2023-04-05T10:29:47.621Z,6.65
2023-04-05T10:33:53.622Z,6.68
2023-04-05T10:38:02.954Z,6.55
2023-04-05T10:42:07.440Z,6.47
2023-04-05T10:46:10.566Z,6.64
2023-04-05T10:50:16.513Z,6.76
2023-04-05T10:54:19.464Z,6.72
2023-04-05T10:58:22.782Z,6.65
2023-04-05T11:02:24.336Z,6.67
2023-04-05T11:06:30.982Z,6.65
2023-04-05T11:10:34.760Z,6.80
2023-04-05T11:14:37.765Z,6.95
2023-04-05T11:18:44.189Z,6.72
2023-04-05T11:22:53.739Z,6.89
2023-04-05T11:26:55.457Z,6.91
2023-04-05T11:31:11.391Z,7.24
2023-04-05T11:35:13.738Z,7.34
2023-04-05T11:39:28.250Z,7.02
2023-04-05T11:43:29.709Z,7.04
2023-04-05T11:47:37.066Z,7.23
2023-04-05T11:51:40.217Z,7.44
2023-04-05T11:55:42.889Z,7.67
2023-04-05T11:59:44.430Z,7.62
2023-04-05T12:03:52.895Z,8.18
2023-04-05T12:07:54.331Z,7.92
2023-04-05T12:11:55.717Z,7.65
2023-04-05T12:16:00.912Z,7.42
2023-04-05T12:20:04.118Z,7.69
2023-04-05T12:24:05.918Z,8.00
2023-04-05T12:28:07.257Z,8.14
2023-04-05T12:32:08.702Z,8.03
2023-04-05T12:36:13.794Z,8.20
2023-04-05T12:40:20.043Z,8.09
2023-04-05T12:44:28.190Z,8.25
2023-04-05T12:48:29.563Z,8.24
2023-04-05T12:52:32.353Z,8.34
2023-04-05T12:56:33.713Z,8.13
2023-04-05T13:00:35.131Z,8.56
2023-04-05T13:04:36.490Z,8.80
2023-04-05T13:08:39.210Z,8.99
2023-04-05T13:12:40.616Z,8.99
2023-04-05T13:16:41.993Z,9.34
2023-04-05T13:20:43.561Z,9.52
2023-04-05T13:24:46.276Z,9.50
2023-04-05T13:28:47.658Z,9.43
2023-04-05T13:32:49.132Z,9.15
2023-04-05T13:36:50.593Z,8.69
2023-04-05T13:40:53.389Z,8.64
2023-04-05T13:44:54.823Z,8.31
2023-04-05T13:48:56.159Z,8.28
2023-04-05T13:52:57.624Z,8.20
2023-04-05T13:57:00.309Z,8.27
2023-04-05T14:01:02.528Z,8.44
2023-04-05T14:05:04.087Z,8.77
2023-04-05T14:09:05.470Z,9.21
2023-04-05T14:13:08.214Z,9.28
2023-04-05T14:17:09.629Z,9.40
2023-04-05T14:21:11.027Z,9.35
2023-04-05T14:25:12.389Z,9.22
2023-04-05T14:29:17.111Z,9.13
2023-04-05T14:33:18.492Z,9.14
2023-04-05T14:37:19.848Z,9.03
2023-04-05T14:41:21.176Z,8.89
2023-04-05T14:45:23.904Z,8.87
2023-04-05T14:49:25.249Z,8.74
2023-04-05T14:53:26.650Z,8.75
2023-04-05T14:57:28.005Z,8.79
2023-04-05T15:01:30.801Z,8.82
2023-04-05T15:05:32.235Z,8.85
2023-04-05T15:09:33.612Z,8.86
2023-04-05T15:13:34.958Z,8.89
2023-04-05T15:17:37.641Z,8.80
2023-04-05T15:21:39.088Z,8.64
2023-04-05T15:25:40.437Z,8.85
2023-04-05T15:29:41.788Z,8.92
2023-04-05T15:33:44.500Z,8.35
2023-04-05T15:37:45.845Z,8.40
2023-04-05T15:41:47.254Z,8.59
2023-04-05T15:45:48.601Z,8.70
2023-04-05T15:49:51.355Z,8.72
2023-04-05T15:53:52.748Z,8.54
2023-04-05T15:57:54.085Z,8.50
2023-04-05T16:01:55.454Z,8.30
2023-04-05T16:05:58.325Z,8.27
2023-04-05T16:09:59.686Z,8.13
2023-04-05T16:14:01.245Z,8.23
2023-04-05T16:18:02.806Z,8.23
2023-04-05T16:22:05.560Z,8.39
2023-04-05T16:26:07.139Z,8.42
2023-04-05T16:30:09.082Z,8.22
2023-04-05T16:34:10.437Z,8.20
2023-04-05T16:38:13.173Z,8.11
2023-04-05T16:42:14.668Z,8.18
2023-04-05T16:46:16.080Z,8.34
2023-04-05T16:50:17.593Z,8.32
2023-04-05T16:54:20.298Z,8.42
2023-04-05T16:58:21.662Z,8.25
2023-04-05T17:02:23.092Z,8.24
2023-04-05T17:06:24.543Z,8.22
2023-04-05T17:10:27.285Z,8.01
2023-04-05T17:14:28.651Z,7.95
2023-04-05T17:18:30.000Z,7.52
2023-04-05T17:22:31.407Z,7.26
2023-04-05T17:26:34.148Z,6.96
2023-04-05T17:30:35.688Z,6.68
2023-04-05T17:34:37.043Z,6.24
2023-04-05T17:38:38.380Z,5.82
2023-04-05T17:42:41.119Z,5.51
2023-04-05T17:46:48.745Z,5.27
2023-04-05T17:50:52.611Z,4.96
2023-04-05T17:54:53.978Z,4.76
2023-04-05T17:58:56.757Z,4.63
2023-04-05T18:02:58.341Z,4.16
2023-04-05T18:06:59.720Z,3.81
2023-04-05T18:11:01.096Z,3.54
2023-04-05T18:15:04.084Z,3.30
2023-04-05T18:19:05.661Z,2.96
2023-04-05T18:23:07.203Z,2.92
2023-04-05T18:27:08.586Z,2.60
2023-04-05T18:31:11.310Z,2.50
2023-04-05T18:35:13.053Z,2.21
2023-04-05T18:39:14.837Z,1.95
2023-04-05T18:43:16.603Z,1.96
2023-04-05T18:47:19.335Z,1.79
2023-04-05T18:51:21.006Z,1.58
2023-04-05T18:55:22.386Z,1.38
2023-04-05T18:59:23.784Z,1.39
2023-04-05T19:03:26.562Z,1.22
2023-04-05T19:07:28.203Z,1.13
2023-04-05T19:11:29.604Z,1.09
2023-04-05T19:15:31.058Z,1.06
2023-04-05T19:19:33.776Z,1.09
2023-04-05T19:23:35.179Z,0.92
2023-04-05T19:27:36.771Z,0.98
2023-04-05T19:31:38.435Z,0.94
2023-04-05T19:35:41.390Z,0.95
2023-04-05T19:39:42.817Z,0.74
2023-04-05T19:43:44.188Z,0.73
2023-04-05T19:47:47.464Z,0.69
2023-04-05T19:51:50.263Z,0.73
2023-04-05T19:55:51.605Z,0.72
2023-04-05T19:59:52.969Z,0.63
2023-04-05T20:03:54.360Z,0.67
2023-04-05T20:07:57.672Z,0.56
2023-04-05T20:11:59.453Z,0.42
2023-04-05T20:16:00.860Z,0.54
2023-04-05T20:20:02.353Z,0.50
2023-04-05T20:24:07.036Z,0.53
2023-04-05T20:28:21.966Z,0.58
2023-04-05T20:32:24.518Z,0.52
2023-04-05T20:36:30.696Z,0.43
2023-04-05T20:40:33.440Z,0.36
2023-04-05T20:44:34.791Z,0.38
2023-04-05T20:48:36.532Z,0.36
2023-04-05T20:52:37.875Z,0.29
2023-04-05T20:56:40.582Z,0.32
2023-04-05T21:00:41.953Z,0.29
2023-04-05T21:04:43.423Z,0.37
2023-04-05T21:08:44.808Z,0.25
2023-04-05T21:12:47.528Z,0.11
2023-04-05T21:16:48.870Z,0.01
2023-04-05T21:20:50.396Z,-0.06
2023-04-05T21:24:51.753Z,-0.07
2023-04-05T21:28:54.475Z,-0.09
2023-04-05T21:32:55.879Z,-0.12
2023-04-05T21:36:57.300Z,-0.21
2023-04-05T21:40:58.676Z,-0.33
2023-04-05T21:45:01.389Z,-0.36
2023-04-05T21:49:02.771Z,-0.40
2023-04-05T21:53:04.208Z,-0.43
2023-04-05T21:57:05.566Z,-0.49
2023-04-05T22:01:08.410Z,-0.48
2023-04-05T22:05:09.983Z,-0.58
2023-04-05T22:09:11.385Z,-0.60
2023-04-05T22:13:12.803Z,-0.62
2023-04-05T22:17:15.519Z,-0.56
2023-04-05T22:21:16.895Z,-0.56
2023-04-05T22:25:18.285Z,-0.75
2023-04-05T22:29:19.858Z,-0.80
2023-04-05T22:33:22.589Z,-0.81
2023-04-05T22:37:23.932Z,-0.80
2023-04-05T22:41:25.286Z,-0.86
2023-04-05T22:45:26.657Z,-0.93
2023-04-05T22:49:29.408Z,-1.06
2023-04-05T22:53:30.780Z,-1.16
2023-04-05T22:57:32.129Z,-1.22
2023-04-05T23:01:33.532Z,-1.19
2023-04-05T23:05:36.294Z,-1.04
2023-04-05T23:09:37.653Z,-1.29
2023-04-05T23:13:39.016Z,-1.25
2023-04-05T23:17:40.638Z,-1.45
2023-04-05T23:21:43.449Z,-1.43
2023-04-05T23:25:44.823Z,-1.54
2023-04-05T23:29:46.179Z,-1.55
2023-04-05T23:33:47.586Z,-1.56
2023-04-05T23:37:50.354Z,-1.60
2023-04-05T23:41:51.782Z,-1.63
2023-04-05T23:45:53.187Z,-1.65
2023-04-05T23:49:54.551Z,-1.84
2023-04-05T23:53:57.305Z,-1.81
2023-04-05T23:57:58.635Z,-1.76
